Time;durP1;ratioP1;P1;durP2;ratioP2;P2;SDS_P1;SDS_P2;PMS_P1;PMS_P2;Temp;Humidity;BMP_temperature;BMP_pressure;BME280_temperature;BME280_humidity;BME280_pressure;Samples;Min_cycle;Max_cycle;Signal;HPM_P1;HPM_P2
2021/05/03 00:00:09;;;;;;;7.18;4.30;;;11.80;58.80;;;;;;6120846;29;20137;-80
2021/05/03 00:03:10;;;;;;;8.20;4.53;;;11.90;58.90;;;;;;6102659;29;20097;-81
2021/05/03 00:06:12;;;;;;;8.70;4.30;;;11.70;58.90;;;;;;6133783;29;20078;-81
2021/05/03 00:09:13;;;;;;;6.93;4.43;;;11.70;59.00;;;;;;6118617;29;20359;-81
2021/05/03 00:12:15;;;;;;;10.75;4.18;;;11.70;59.10;;;;;;6134729;29;20122;-82
2021/05/03 00:15:17;;;;;;;6.45;3.83;;;11.60;59.10;;;;;;6117622;29;20038;-81
2021/05/03 00:18:19;;;;;;;9.55;4.70;;;11.60;59.20;;;;;;6116508;29;20351;-81
2021/05/03 00:21:20;;;;;;;6.88;4.47;;;11.60;59.20;;;;;;6117264;29;20036;-81
2021/05/03 00:24:21;;;;;;;7.25;4.30;;;11.50;59.30;;;;;;6132819;29;20044;-81
2021/05/03 00:27:22;;;;;;;8.38;4.53;;;11.40;59.30;;;;;;6118208;29;20127;-81
2021/05/03 00:30:23;;;;;;;6.72;4.53;;;11.50;59.60;;;;;;6133854;29;20095;-79
2021/05/03 00:33:25;;;;;;;10.38;5.18;;;11.50;59.60;;;;;;6116605;29;20048;-80
2021/05/03 00:36:26;;;;;;;7.63;4.32;;;11.40;59.80;;;;;;6133989;29;20083;-80
2021/05/03 00:39:27;;;;;;;14.98;5.32;;;11.40;59.90;;;;;;6135975;29;20031;-81
2021/05/03 00:42:28;;;;;;;8.45;5.35;;;11.40;60.00;;;;;;6118142;29;20139;-82
2021/05/03 00:45:30;;;;;;;18.55;4.63;;;11.40;60.20;;;;;;6132467;29;20050;-80
2021/05/03 00:48:31;;;;;;;13.10;4.82;;;11.40;60.30;;;;;;6121261;29;20032;-81
2021/05/03 00:51:33;;;;;;;10.43;4.70;;;11.40;60.50;;;;;;6099341;29;20078;-82
2021/05/03 00:54:34;;;;;;;10.48;5.28;;;11.30;60.70;;;;;;6098955;29;20036;-81
2021/05/03 00:57:37;;;;;;;12.85;5.13;;;11.40;60.90;;;;;;6114805;29;20035;-80
2021/05/03 01:00:38;;;;;;;8.55;4.68;;;11.30;61.00;;;;;;6130311;29;20023;-81
2021/05/03 01:03:41;;;;;;;10.25;4.43;;;11.30;61.10;;;;;;6098952;29;20036;-81
2021/05/03 01:06:42;;;;;;;6.80;3.80;;;11.30;61.20;;;;;;6130327;29;20050;-81
2021/05/03 01:09:43;;;;;;;6.90;4.00;;;11.30;61.10;;;;;;6131353;29;20024;-80
2021/05/03 01:12:44;;;;;;;7.20;3.92;;;11.30;61.00;;;;;;6129875;29;20119;-81
2021/05/03 01:15:46;;;;;;;7.38;3.90;;;11.30;60.80;;;;;;6098408;29;20036;-83
2021/05/03 01:18:47;;;;;;;7.65;4.72;;;11.50;60.90;;;;;;6113713;29;20411;-82
2021/05/03 01:21:49;;;;;;;7.10;4.40;;;11.30;61.00;;;;;;6113968;29;20348;-80
2021/05/03 01:24:51;;;;;;;6.82;3.90;;;11.30;61.10;;;;;;6114071;29;20036;-81
2021/05/03 01:27:52;;;;;;;8.35;4.35;;;11.20;61.30;;;;;;6113228;29;20149;-81
2021/05/03 01:30:54;;;;;;;7.22;4.13;;;11.20;61.30;;;;;;6130863;29;20028;-80
2021/05/03 01:33:55;;;;;;;6.55;4.03;;;11.20;61.40;;;;;;6113586;29;20039;-80
2021/05/03 01:36:56;;;;;;;4.65;2.92;;;11.20;61.40;;;;;;6114611;29;20053;-81
2021/05/03 01:39:57;;;;;;;5.75;3.22;;;11.10;61.20;;;;;;6115378;29;20169;-81
2021/05/03 01:43:16;;;;;;;5.28;3.55;;;11.10;60.90;;;;;;6107541;29;20336;-81
2021/05/03 01:46:19;;;;;;;3.78;2.60;;;11.00;60.60;;;;;;6114491;29;20032;-79
2021/05/03 01:49:20;;;;;;;8.70;3.42;;;10.90;60.50;;;;;;6114564;29;20027;-81
2021/05/03 01:52:22;;;;;;;4.75;2.72;;;10.90;60.60;;;;;;6132054;29;20031;-79
2021/05/03 01:55:23;;;;;;;4.30;2.70;;;10.90;60.60;;;;;;6115422;29;20032;-79
2021/05/03 01:58:27;;;;;;;4.00;2.78;;;10.90;60.60;;;;;;6115794;29;20048;-79
2021/05/03 02:01:28;;;;;;;3.53;2.70;;;10.90;60.50;;;;;;6114688;29;20126;-80
2021/05/03 02:04:30;;;;;;;6.32;2.90;;;10.90;60.50;;;;;;6113799;29;20055;-80
2021/05/03 02:07:31;;;;;;;4.57;2.80;;;10.80;60.50;;;;;;6114806;29;20110;-80
2021/05/03 02:10:33;;;;;;;5.95;2.75;;;10.80;60.50;;;;;;6116495;29;20090;-80
2021/05/03 02:13:35;;;;;;;8.00;3.33;;;10.80;60.50;;;;;;6098198;29;20032;-81
2021/05/03 02:16:37;;;;;;;10.00;3.30;;;10.70;60.50;;;;;;6113866;29;20056;-82
2021/05/03 02:19:38;;;;;;;6.28;3.35;;;10.70;60.50;;;;;;6114132;29;20535;-81
2021/05/03 02:22:39;;;;;;;6.22;2.90;;;10.70;60.70;;;;;;6117856;29;20028;-80
2021/05/03 02:25:41;;;;;;;7.18;2.83;;;10.70;60.70;;;;;;6142637;29;20032;-80
2021/05/03 02:28:42;;;;;;;5.05;2.85;;;10.70;60.70;;;;;;6120786;29;20031;-80
2021/05/03 02:31:44;;;;;;;7.10;3.70;;;10.70;60.70;;;;;;6114276;29;20042;-80
2021/05/03 02:34:45;;;;;;;7.13;3.40;;;10.60;60.70;;;;;;6129030;29;20059;-80
2021/05/03 02:37:51;;;;;;;7.65;3.88;;;10.60;61.00;;;;;;6130250;29;20075;-80
2021/05/03 02:40:52;;;;;;;6.65;3.92;;;10.60;61.40;;;;;;6114282;29;20038;-80
2021/05/03 02:43:53;;;;;;;6.78;3.67;;;10.60;61.50;;;;;;6114334;29;20130;-81
2021/05/03 02:46:55;;;;;;;4.10;2.78;;;10.40;61.40;;;;;;6115143;29;20456;-80
2021/05/03 02:49:56;;;;;;;6.25;3.17;;;10.50;61.60;;;;;;6131574;29;20036;-80
2021/05/03 02:52:57;;;;;;;4.10;2.65;;;10.50;61.40;;;;;;6102962;29;20035;-80
2021/05/03 02:56:00;;;;;;;7.20;3.38;;;10.50;61.20;;;;;;6121748;29;20095;-80
2021/05/03 02:59:01;;;;;;;4.03;2.85;;;10.50;61.10;;;;;;6124380;29;20135;-80
2021/05/03 03:02:03;;;;;;;4.93;2.95;;;10.50;61.10;;;;;;6136127;29;20052;-82
2021/05/03 03:05:06;;;;;;;5.60;2.88;;;10.50;61.10;;;;;;6134516;29;20142;-80
2021/05/03 03:08:07;;;;;;;6.07;3.33;;;10.50;61.00;;;;;;6128691;29;20035;-79
2021/05/03 03:11:08;;;;;;;4.47;3.28;;;10.50;61.00;;;;;;6135085;29;20459;-79
2021/05/03 03:14:11;;;;;;;6.70;4.03;;;10.40;60.90;;;;;;6132914;29;20040;-80
2021/05/03 03:17:13;;;;;;;6.00;3.60;;;10.40;61.10;;;;;;6133997;29;20042;-81
2021/05/03 03:20:15;;;;;;;4.97;3.22;;;10.40;61.30;;;;;;6124410;29;20481;-81
2021/05/03 03:23:16;;;;;;;5.00;3.17;;;10.30;61.40;;;;;;6119699;29;20118;-80
2021/05/03 03:26:17;;;;;;;5.97;4.15;;;10.30;61.50;;;;;;6135989;29;20035;-80
2021/05/03 03:29:19;;;;;;;9.32;4.40;;;10.30;61.70;;;;;;6135468;29;20110;-80
2021/05/03 03:32:20;;;;;;;5.80;3.63;;;10.30;61.90;;;;;;6133204;29;20074;-80
2021/05/03 03:35:21;;;;;;;12.75;4.65;;;10.30;62.00;;;;;;6116912;29;20035;-80
2021/05/03 03:38:22;;;;;;;14.27;4.63;;;10.30;62.10;;;;;;6117185;29;20277;-80
2021/05/03 03:41:23;;;;;;;11.50;4.93;;;10.30;62.20;;;;;;6117173;29;20043;-80
2021/05/03 03:44:26;;;;;;;6.28;3.75;;;10.30;62.40;;;;;;6132516;29;20083;-80
2021/05/03 03:47:28;;;;;;;6.53;4.35;;;10.30;62.60;;;;;;6116783;29;20028;-80
2021/05/03 03:50:29;;;;;;;7.50;3.65;;;10.20;62.60;;;;;;6133380;29;20388;-80
2021/05/03 03:53:30;;;;;;;8.18;3.67;;;10.20;62.40;;;;;;6133020;29;20046;-80
2021/05/03 03:56:31;;;;;;;6.63;3.83;;;10.20;62.20;;;;;;6131177;29;20027;-80
2021/05/03 03:59:36;;;;;;;6.00;3.90;;;10.20;62.00;;;;;;6115875;29;20035;-80
2021/05/03 04:02:38;;;;;;;5.75;3.60;;;10.10;62.00;;;;;;6132648;29;20123;-80
2021/05/03 04:09:24;;;;;;;7.10;4.28;;;10.00;61.90;;;;;;6083850;29;20149;-80
2021/05/03 04:12:39;;;;;;;7.25;4.03;;;10.00;62.00;;;;;;6067891;29;20057;-80
2021/05/03 04:23:03;;;;;;;8.40;4.50;;;9.90;62.30;;;;;;6021284;29;20049;-81
2021/05/03 04:25:49;;;;;;;9.07;4.20;;;9.90;62.40;;;;;;6019498;29;20033;-80
2021/05/03 04:28:52;;;;;;;8.23;4.15;;;9.90;62.20;;;;;;6036863;29;20484;-80
2021/05/03 04:31:53;;;;;;;8.15;4.32;;;9.90;62.20;;;;;;6037254;29;20049;-80
2021/05/03 04:34:54;;;;;;;7.80;3.95;;;9.90;62.20;;;;;;6022306;29;20038;-80
2021/05/03 04:37:55;;;;;;;8.52;4.05;;;9.90;62.20;;;;;;6023535;29;20070;-80
2021/05/03 04:40:56;;;;;;;8.05;4.60;;;9.90;62.40;;;;;;6036828;29;20052;-80
2021/05/03 04:43:57;;;;;;;6.80;4.22;;;9.90;62.70;;;;;;6046053;29;20044;-80
2021/05/03 04:47:00;;;;;;;6.75;4.15;;;9.80;62.80;;;;;;6060860;29;20053;-80
2021/05/03 04:50:02;;;;;;;6.70;4.03;;;9.80;62.80;;;;;;6060806;29;20033;-79
2021/05/03 04:53:03;;;;;;;5.35;3.72;;;9.90;63.00;;;;;;6059101;29;20068;-80
2021/05/03 04:56:06;;;;;;;9.75;5.22;;;9.90;62.90;;;;;;6059178;29;20033;-80
2021/05/03 04:59:11;;;;;;;8.57;4.70;;;9.90;62.90;;;;;;6095849;29;20341;-80
2021/05/03 05:02:12;;;;;;;6.65;4.13;;;9.90;62.90;;;;;;6114330;29;20059;-81
2021/05/03 05:05:14;;;;;;;7.25;4.32;;;9.90;62.90;;;;;;6114261;29;20038;-81
2021/05/03 05:08:15;;;;;;;9.43;4.53;;;10.00;62.90;;;;;;6114471;29;20447;-81
2021/05/03 05:11:17;;;;;;;10.13;4.75;;;9.90;62.80;;;;;;6114082;29;20039;-81
2021/05/03 05:14:19;;;;;;;7.05;4.75;;;9.90;62.90;;;;;;6114080;29;20455;-80
2021/05/03 05:17:20;;;;;;;8.23;4.45;;;10.00;63.10;;;;;;6130016;29;20114;-80
2021/05/03 05:20:21;;;;;;;11.10;5.50;;;10.00;63.00;;;;;;6113178;29;20063;-81
2021/05/03 05:23:22;;;;;;;8.40;4.57;;;10.00;62.80;;;;;;6114397;29;20045;-81
2021/05/03 05:26:23;;;;;;;5.30;3.78;;;10.10;62.70;;;;;;6131625;29;20038;-80
2021/05/03 05:29:25;;;;;;;7.90;3.72;;;10.10;62.50;;;;;;6114317;29;20031;-81
2021/05/03 05:32:26;;;;;;;6.82;3.83;;;10.10;62.50;;;;;;6130380;29;20032;-80
2021/05/03 05:35:27;;;;;;;8.98;4.55;;;10.10;62.40;;;;;;6114575;29;20098;-80
2021/05/03 05:38:28;;;;;;;43.90;6.25;;;10.10;62.30;;;;;;6130091;29;20455;-80
2021/05/03 05:41:31;;;;;;;13.25;4.47;;;10.10;62.50;;;;;;6098350;29;20027;-80
2021/05/03 05:44:33;;;;;;;10.45;4.53;;;10.20;62.50;;;;;;6114139;29;20068;-81
2021/05/03 05:47:34;;;;;;;11.95;5.05;;;10.30;62.20;;;;;;6115340;29;20043;-81
2021/05/03 05:50:35;;;;;;;8.27;4.25;;;10.30;62.00;;;;;;6113830;29;20458;-82
2021/05/03 05:53:36;;;;;;;19.25;6.25;;;10.40;61.80;;;;;;6114682;29;20043;-82
2021/05/03 05:56:37;;;;;;;8.88;4.82;;;10.50;61.50;;;;;;6131838;29;20086;-81
2021/05/03 05:59:38;;;;;;;13.02;4.18;;;10.50;61.30;;;;;;6130415;29;20046;-82
2021/05/03 06:02:40;;;;;;;8.32;4.45;;;10.50;61.30;;;;;;6115754;29;20110;-81
2021/05/03 06:05:41;;;;;;;9.48;4.35;;;10.50;61.40;;;;;;6117116;29;20032;-81
2021/05/03 06:08:42;;;;;;;7.97;4.65;;;10.50;61.30;;;;;;6131809;29;20032;-81
2021/05/03 06:11:45;;;;;;;7.25;4.63;;;10.60;61.20;;;;;;6129454;29;20032;-81
2021/05/03 06:14:46;;;;;;;9.85;4.78;;;10.70;61.20;;;;;;6129302;29;20059;-81
2021/05/03 06:17:47;;;;;;;11.68;5.03;;;10.80;61.20;;;;;;6129237;29;20561;-81
2021/05/03 06:20:48;;;;;;;12.30;5.45;;;10.90;61.20;;;;;;6128472;29;20087;-82
2021/05/03 06:23:51;;;;;;;16.70;6.45;;;11.00;61.00;;;;;;6132335;29;20028;-81
2021/05/03 06:26:53;;;;;;;8.73;5.28;;;11.00;60.70;;;;;;6136324;29;20023;-82
2021/05/03 06:29:54;;;;;;;10.32;5.28;;;11.20;60.60;;;;;;6135623;29;20371;-82
2021/05/03 06:32:56;;;;;;;10.93;5.18;;;11.30;60.50;;;;;;6135408;29;20032;-80
2021/05/03 06:35:58;;;;;;;9.00;4.57;;;11.40;60.20;;;;;;6118382;29;20090;-81
2021/05/03 06:38:59;;;;;;;10.82;4.68;;;11.50;59.80;;;;;;6118528;29;20371;-80
2021/05/03 06:42:01;;;;;;;10.77;5.45;;;11.60;59.60;;;;;;6135463;29;20126;-81
2021/05/03 06:45:04;;;;;;;7.93;4.60;;;11.70;59.50;;;;;;6118749;29;20042;-83
2021/05/03 06:48:08;;;;;;;10.45;4.95;;;11.70;59.30;;;;;;6099008;29;20036;-82
2021/05/03 06:51:09;;;;;;;10.07;4.57;;;11.70;59.20;;;;;;6133261;29;20363;-81
2021/05/03 06:54:12;;;;;;;16.50;5.82;;;11.80;59.20;;;;;;6117661;29;20032;-81
2021/05/03 06:57:14;;;;;;;12.65;6.45;;;11.90;59.00;;;;;;6118700;29;20119;-81
2021/05/03 07:00:15;;;;;;;10.73;4.22;;;12.00;58.90;;;;;;6135161;29;20028;-80
2021/05/03 07:03:17;;;;;;;6.82;4.07;;;12.10;58.60;;;;;;6118050;29;20052;-80
2021/05/03 07:06:18;;;;;;;10.93;4.18;;;12.10;58.30;;;;;;6117408;29;20463;-81
2021/05/03 07:09:20;;;;;;;22.42;5.38;;;12.10;57.90;;;;;;6134030;29;20070;-81
2021/05/03 07:12:23;;;;;;;7.15;4.47;;;12.20;57.90;;;;;;6134041;29;20072;-80
2021/05/03 07:15:24;;;;;;;7.68;4.40;;;12.40;58.00;;;;;;6117648;29;20462;-80
2021/05/03 07:18:25;;;;;;;9.85;4.90;;;12.50;57.40;;;;;;6111859;29;20106;-80
2021/05/03 07:21:28;;;;;;;26.75;5.72;;;12.60;57.40;;;;;;6116026;29;20167;-81
2021/05/03 07:24:29;;;;;;;8.90;4.57;;;12.70;57.30;;;;;;6133495;29;20031;-82
2021/05/03 07:27:33;;;;;;;28.23;5.20;;;12.80;57.20;;;;;;6134048;29;20039;-81
2021/05/03 07:30:34;;;;;;;7.82;4.70;;;13.00;56.80;;;;;;6116032;29;20043;-80
2021/05/03 07:33:35;;;;;;;7.38;4.25;;;13.10;56.40;;;;;;6116288;29;20036;-81
2021/05/03 07:36:37;;;;;;;14.48;4.55;;;13.10;55.90;;;;;;6131132;29;20058;-80
2021/05/03 07:39:41;;;;;;;5.82;3.88;;;13.20;55.70;;;;;;6101761;29;20080;-83
2021/05/03 07:42:42;;;;;;;10.02;4.68;;;13.20;55.50;;;;;;6117001;29;20028;-82
2021/05/03 07:45:43;;;;;;;15.65;5.15;;;13.40;55.40;;;;;;6116478;29;20463;-82
2021/05/03 07:48:44;;;;;;;11.02;4.22;;;13.50;55.20;;;;;;6105123;29;20103;-83
2021/05/03 07:51:48;;;;;;;41.88;6.90;;;13.60;55.10;;;;;;6124884;29;20043;-81
2021/05/03 07:54:49;;;;;;;30.85;6.00;;;13.80;54.50;;;;;;6138810;29;20058;-82
2021/05/03 07:57:53;;;;;;;31.02;5.82;;;14.00;53.80;;;;;;6136078;29;20055;-80
2021/05/03 08:00:54;;;;;;;11.75;5.10;;;14.10;53.10;;;;;;6117052;29;20048;-80
2021/05/03 08:03:57;;;;;;;26.63;6.35;;;14.10;52.80;;;;;;6100488;29;20042;-82
2021/05/03 08:06:59;;;;;;;9.93;3.58;;;14.20;52.40;;;;;;6115362;29;20118;-80
2021/05/03 08:10:00;;;;;;;11.95;3.95;;;14.30;52.10;;;;;;6116341;29;20066;-81
2021/05/03 08:13:02;;;;;;;6.85;3.60;;;14.40;51.40;;;;;;6115835;29;20115;-81
2021/05/03 08:16:06;;;;;;;4.95;3.42;;;14.40;51.10;;;;;;6116455;29;20328;-82
2021/05/03 08:19:07;;;;;;;6.22;3.55;;;14.40;50.30;;;;;;6131328;29;20154;-81
2021/05/03 08:22:11;;;;;;;6.15;3.97;;;14.50;50.70;;;;;;6098154;29;20436;-82
2021/05/03 08:25:13;;;;;;;17.77;4.28;;;14.60;50.90;;;;;;6131242;29;20071;-80
2021/05/03 08:28:16;;;;;;;6.50;4.00;;;14.80;50.90;;;;;;6115433;29;20478;-81
2021/05/03 08:31:17;;;;;;;10.10;4.68;;;15.00;50.80;;;;;;6131966;29;20031;-81
2021/05/03 08:34:20;;;;;;;7.18;4.13;;;15.20;50.40;;;;;;6132524;29;20036;-81
2021/05/03 08:37:23;;;;;;;14.05;4.60;;;15.30;50.20;;;;;;6117534;29;20443;-81
2021/05/03 08:40:24;;;;;;;8.20;3.20;;;15.50;50.00;;;;;;6133578;29;20154;-82
2021/05/03 08:43:28;;;;;;;6.40;3.67;;;15.70;49.70;;;;;;6115934;29;20141;-81
2021/05/03 08:46:33;;;;;;;9.88;4.40;;;15.80;48.90;;;;;;6114999;29;20543;-82
2021/05/03 08:52:54;;;;;;;6.07;2.92;;;16.10;48.20;;;;;;6114575;29;20032;-80
2021/05/03 08:55:55;;;;;;;5.07;3.28;;;16.20;47.80;;;;;;6115978;29;20539;-81
2021/05/03 08:58:58;;;;;;;4.60;3.00;;;16.20;47.10;;;;;;6116439;29;20171;-80
2021/05/03 09:01:59;;;;;;;7.07;3.03;;;16.30;47.00;;;;;;6116064;29;20040;-81
2021/05/03 09:05:00;;;;;;;9.13;4.85;;;16.30;46.90;;;;;;6115011;29;20090;-81
2021/05/03 09:08:03;;;;;;;6.25;3.50;;;16.40;46.80;;;;;;6115202;29;20069;-81
2021/05/03 09:11:05;;;;;;;8.60;3.22;;;16.40;45.90;;;;;;6115053;29;20032;-83
2021/05/03 09:14:11;;;;;;;11.77;3.60;;;16.40;46.00;;;;;;6114455;29;20497;-81
2021/05/03 09:17:45;;;;;;;10.50;3.38;;;16.50;45.50;;;;;;6114580;29;20055;-82
2021/05/03 09:20:52;;;;;;;3.80;2.80;;;16.50;45.40;;;;;;6133684;29;20514;-81
2021/05/03 09:24:03;;;;;;;4.57;2.97;;;16.50;45.20;;;;;;6129832;29;20031;-81
2021/05/03 09:27:07;;;;;;;6.15;2.50;;;16.60;45.40;;;;;;6124383;29;20070;-80
2021/05/03 09:30:08;;;;;;;6.20;2.63;;;16.70;45.30;;;;;;6113613;29;20031;-80
2021/05/03 09:33:22;;;;;;;9.40;3.47;;;16.80;45.00;;;;;;6114213;29;20120;-82
2021/05/03 09:36:25;;;;;;;8.63;3.83;;;16.90;45.00;;;;;;6114074;29;20032;-80
2021/05/03 09:39:30;;;;;;;10.20;3.45;;;17.00;44.60;;;;;;6113061;29;20024;-81
2021/05/03 09:42:52;;;;;;;5.82;3.03;;;17.10;44.40;;;;;;6114282;29;20443;-81
2021/05/03 09:45:57;;;;;;;4.85;3.10;;;17.20;43.90;;;;;;6111341;29;20050;-80
2021/05/03 09:49:03;;;;;;;3.38;2.30;;;17.30;42.10;;;;;;6114029;29;20372;-80
2021/05/03 09:52:10;;;;;;;5.15;2.63;;;17.20;41.90;;;;;;6113514;29;20034;-80
2021/05/03 09:55:32;;;;;;;4.65;2.47;;;17.20;41.80;;;;;;6114319;29;20059;-81
2021/05/03 09:58:38;;;;;;;6.25;2.78;;;17.30;42.00;;;;;;6113724;29;20040;-81
2021/05/03 10:01:40;;;;;;;4.22;2.75;;;17.30;42.10;;;;;;6114333;29;20067;-81
2021/05/03 10:05:10;;;;;;;4.20;2.63;;;17.40;41.50;;;;;;6118022;29;20424;-79
2021/05/03 10:08:11;;;;;;;3.88;2.90;;;17.30;41.70;;;;;;6109374;29;20597;-80
2021/05/03 10:11:15;;;;;;;4.07;2.72;;;17.50;41.90;;;;;;6120020;29;20106;-81
2021/05/03 10:14:16;;;;;;;6.45;2.72;;;17.60;41.30;;;;;;6129425;29;20126;-81
2021/05/03 10:17:18;;;;;;;4.35;2.80;;;17.60;40.90;;;;;;6129492;29;20034;-81
2021/05/03 10:20:20;;;;;;;5.70;3.17;;;17.70;40.90;;;;;;6129990;29;20023;-82
2021/05/03 10:23:24;;;;;;;2.97;2.40;;;17.70;40.90;;;;;;6114233;29;20059;-82
2021/05/03 10:26:29;;;;;;;4.80;3.00;;;17.70;40.80;;;;;;6130276;29;20032;-81
2021/05/03 10:29:40;;;;;;;4.13;2.58;;;17.80;41.00;;;;;;6129037;29;20035;-82
2021/05/03 10:32:57;;;;;;;3.63;2.42;;;17.90;40.80;;;;;;6114550;29;20039;-82
2021/05/03 10:35:59;;;;;;;10.73;4.63;;;18.00;40.00;;;;;;6129768;29;20459;-81
2021/05/03 10:39:01;;;;;;;5.15;2.53;;;18.00;39.60;;;;;;6113457;29;20440;-80
2021/05/03 10:42:11;;;;;;;3.35;2.20;;;18.00;39.60;;;;;;6113596;29;20355;-82
2021/05/03 10:45:18;;;;;;;3.63;2.35;;;18.10;38.60;;;;;;6114123;29;20036;-79
2021/05/03 10:51:55;;;;;;;10.82;2.15;;;18.10;39.10;;;;;;6126797;29;20035;-80
2021/05/03 10:54:56;;;;;;;4.55;2.30;;;18.80;38.00;;;;;;6128481;29;20031;-80
2021/05/03 10:57:59;;;;;;;2.97;2.20;;;19.60;36.80;;;;;;6113217;29;20027;-81
2021/05/03 11:01:11;;;;;;;4.10;2.40;;;20.40;35.40;;;;;;6113141;29;20151;-81
2021/05/03 11:04:12;;;;;;;3.78;2.05;;;21.10;34.50;;;;;;6113465;29;20369;-80
2021/05/03 11:07:13;;;;;;;2.75;1.77;;;21.60;33.30;;;;;;6129931;29;20035;-81
2021/05/03 11:10:52;;;;;;;4.43;1.83;;;22.20;32.20;;;;;;6114446;29;20040;-81
2021/05/03 11:13:57;;;;;;;2.13;1.90;;;22.50;31.80;;;;;;6133871;29;20032;-82
2021/05/03 11:17:01;;;;;;;2.40;2.20;;;23.20;30.90;;;;;;6133229;29;20027;-80
2021/05/03 11:23:30;;;;;;;4.15;1.80;;;24.10;29.50;;;;;;6133975;29;20019;-78
2021/05/03 11:26:35;;;;;;;3.83;2.50;;;24.40;28.50;;;;;;6110716;29;20032;-81
2021/05/03 11:33:20;;;;;;;2.58;1.70;;;24.80;28.20;;;;;;6084339;29;20039;-79
2021/05/03 11:36:28;;;;;;;2.63;1.63;;;25.00;27.60;;;;;;6084610;29;20428;-78
2021/05/03 11:46:09;;;;;;;4.15;1.90;;;25.30;26.60;;;;;;6068103;29;20037;-79
2021/05/03 11:49:09;;;;;;;30.20;3.65;;;25.40;26.00;;;;;;6083447;29;20076;-79
2021/05/03 11:52:12;;;;;;;14.05;1.90;;;25.50;25.90;;;;;;6067866;29;20036;-78
2021/05/03 11:55:17;;;;;;;5.68;1.70;;;25.70;25.90;;;;;;6052726;29;20471;-78
2021/05/03 11:58:18;;;;;;;4.00;2.10;;;25.90;25.60;;;;;;6069176;29;20476;-79
2021/05/03 12:01:23;;;;;;;2.60;1.85;;;26.30;25.60;;;;;;6077957;29;20041;-79
2021/05/03 12:04:48;;;;;;;4.10;1.67;;;26.50;25.40;;;;;;6094195;29;20044;-78
2021/05/03 12:07:50;;;;;;;3.00;1.58;;;26.70;24.90;;;;;;6104687;29;20051;-79
2021/05/03 12:10:51;;;;;;;3.97;1.92;;;26.70;24.20;;;;;;6102364;29;20386;-78
2021/05/03 12:13:56;;;;;;;2.17;1.48;;;26.80;24.10;;;;;;6116785;29;20032;-78
2021/05/03 12:16:58;;;;;;;5.85;2.05;;;26.90;24.00;;;;;;6128257;29;20027;-78
2021/05/03 12:20:08;;;;;;;17.27;2.67;;;26.80;24.00;;;;;;6116979;29;20039;-79
2021/05/03 12:23:13;;;;;;;24.88;3.55;;;27.00;24.00;;;;;;6115994;29;20028;-78
2021/05/03 12:26:14;;;;;;;6.80;1.70;;;27.50;24.10;;;;;;6115458;29;20028;-77
2021/05/03 12:29:17;;;;;;;12.90;2.88;;;28.10;23.90;;;;;;6116042;29;20047;-78
2021/05/03 12:32:19;;;;;;;5.10;1.90;;;28.50;22.80;;;;;;6130954;29;20059;-80
2021/05/03 12:35:22;;;;;;;571.05;46.85;;;28.60;22.30;;;;;;6131410;29;20477;-77
2021/05/03 12:38:25;;;;;;;3.38;1.80;;;28.70;22.00;;;;;;6130688;29;20126;-77
2021/05/03 12:41:27;;;;;;;10.60;1.90;;;29.00;21.80;;;;;;6113960;29;20036;-78
2021/05/03 12:44:40;;;;;;;2.75;1.65;;;29.20;21.00;;;;;;6130087;29;20031;-77
2021/05/03 12:47:59;;;;;;;2.25;1.60;;;29.40;20.70;;;;;;6114517;29;20054;-79
2021/05/03 12:55:02;;;;;;;7.28;2.55;;;30.20;20.40;;;;;;6115064;29;20038;-78
2021/05/03 12:58:17;;;;;;;9.55;1.75;;;30.70;20.10;;;;;;6101659;29;20070;-78
2021/05/03 13:01:41;;;;;;;82.15;5.93;;;31.50;19.60;;;;;;6114022;29;20051;-78
2021/05/03 13:04:52;;;;;;;168.52;11.15;;;32.10;19.20;;;;;;6099209;29;20119;-79
2021/05/03 13:08:17;;;;;;;347.00;24.63;;;32.80;18.60;;;;;;6113626;29;20053;-78
2021/05/03 13:30:52;;;;;;;12.30;2.53;;;36.80;16.00;;;;;;6110326;29;20442;-78
2021/05/03 13:33:53;;;;;;;403.50;28.55;;;36.90;15.90;;;;;;6123081;29;20063;-78
2021/05/03 13:36:54;;;;;;;4.05;1.92;;;37.10;15.80;;;;;;6114692;29;20050;-79
2021/05/03 13:39:55;;;;;;;5.03;1.73;;;37.40;15.70;;;;;;6115335;29;20039;-79
2021/05/03 13:42:56;;;;;;;139.23;9.38;;;37.80;15.60;;;;;;6115807;29;20074;-77
2021/05/03 13:46:09;;;;;;;5.00;2.08;;;38.30;15.40;;;;;;6129826;29;20028;-78
2021/05/03 13:49:19;;;;;;;60.25;4.20;;;38.60;15.10;;;;;;6114165;29;20028;-78
2021/05/03 13:52:22;;;;;;;1.98;1.33;;;38.70;14.90;;;;;;6113563;29;20139;-78
2021/05/03 13:55:26;;;;;;;4.70;1.40;;;38.50;14.60;;;;;;6114046;29;20034;-79
2021/05/03 13:58:27;;;;;;;1.83;1.13;;;38.10;14.70;;;;;;6123729;29;20035;-78
2021/05/03 14:01:28;;;;;;;450.95;25.10;;;37.80;14.70;;;;;;6097504;29;20048;-80
2021/05/03 14:04:33;;;;;;;4.35;1.27;;;37.80;14.90;;;;;;6066818;29;20103;-78
2021/05/03 14:07:34;;;;;;;3.88;1.38;;;37.90;14.50;;;;;;6084624;29;20107;-79
2021/05/03 14:10:35;;;;;;;7.38;1.40;;;37.90;14.40;;;;;;6086955;29;20036;-78
2021/05/03 14:13:38;;;;;;;5.10;1.27;;;37.90;14.40;;;;;;6082440;29;20028;-78
2021/05/03 14:16:40;;;;;;;29.15;2.42;;;38.00;14.50;;;;;;6097623;29;20044;-79
2021/05/03 14:19:43;;;;;;;5.25;1.35;;;38.00;14.30;;;;;;6082226;29;20479;-79
2021/05/03 14:22:44;;;;;;;1.95;1.30;;;37.80;14.40;;;;;;6082429;29;20037;-77
2021/05/03 14:25:48;;;;;;;1.33;1.00;;;37.80;14.50;;;;;;6084617;29;20091;-79
2021/05/03 14:29:00;;;;;;;7.22;1.25;;;37.80;14.20;;;;;;6083734;29;20028;-78
2021/05/03 14:32:07;;;;;;;19.08;2.50;;;37.80;14.40;;;;;;6081930;29;20037;-79
2021/05/03 14:35:12;;;;;;;6.77;1.47;;;37.90;14.30;;;;;;6097518;29;20151;-78
2021/05/03 14:38:13;;;;;;;1.25;1.13;;;37.20;14.70;;;;;;6081467;29;20033;-79
2021/05/03 14:41:14;;;;;;;3.97;1.20;;;35.60;15.50;;;;;;6081671;29;20039;-78
2021/05/03 14:44:17;;;;;;;1.63;1.30;;;34.00;16.30;;;;;;6081885;29;20052;-78
2021/05/03 14:47:22;;;;;;;3.20;1.52;;;32.30;17.30;;;;;;6086562;29;20364;-78
2021/05/03 14:53:39;;;;;;;4.93;1.10;;;29.40;19.40;;;;;;6086329;29;20048;-79
2021/05/03 14:56:40;;;;;;;8.90;1.80;;;28.40;20.20;;;;;;6070412;29;20035;-79
2021/05/03 14:59:41;;;;;;;3.72;0.98;;;27.50;21.20;;;;;;6101433;29;20033;-79
2021/05/03 15:02:42;;;;;;;5.32;1.63;;;26.70;21.80;;;;;;6111936;29;20044;-78
2021/05/03 15:05:47;;;;;;;4.45;1.55;;;26.10;22.40;;;;;;6101858;29;20372;-79
2021/05/03 15:08:48;;;;;;;1.25;1.10;;;25.60;22.70;;;;;;6086535;29;20028;-78
2021/05/03 15:11:52;;;;;;;3.20;0.90;;;25.40;23.40;;;;;;6116878;29;20036;-78
2021/05/03 15:24:21;;;;;;;2.67;1.33;;;24.30;24.30;;;;;;6085417;29;20040;-79
2021/05/03 15:34:12;;;;;;;2.10;1.38;;;27.60;22.30;;;;;;6037842;29;20098;-79
2021/05/03 15:37:13;;;;;;;2.25;1.00;;;30.00;20.20;;;;;;6022254;29;20109;-79
2021/05/03 15:40:16;;;;;;;2.67;0.90;;;31.50;19.00;;;;;;6022370;29;20077;-79
2021/05/03 15:43:19;;;;;;;2.88;1.23;;;32.70;17.80;;;;;;6037375;29;20033;-80
2021/05/03 15:46:21;;;;;;;1.52;0.80;;;33.40;17.20;;;;;;6036985;29;20747;-79
2021/05/03 15:49:22;;;;;;;1.40;1.08;;;34.10;16.80;;;;;;6021755;29;20049;-79
2021/05/03 15:52:23;;;;;;;1.30;1.10;;;34.80;16.40;;;;;;6036912;29;20474;-78
2021/05/03 15:55:24;;;;;;;1.10;0.80;;;35.50;16.00;;;;;;6021769;29;20076;-78
2021/05/03 15:58:27;;;;;;;1.33;0.90;;;36.00;15.60;;;;;;6036642;29;20055;-78
2021/05/03 16:01:29;;;;;;;8.48;3.42;;;36.20;15.30;;;;;;6027186;29;20053;-79
2021/05/03 16:04:31;;;;;;;1.20;1.08;;;36.50;15.40;;;;;;6069632;29;20109;-79
2021/05/03 16:07:32;;;;;;;2.08;1.20;;;36.70;15.00;;;;;;6107257;29;20032;-79
2021/05/03 16:10:33;;;;;;;1.10;1.00;;;36.50;14.80;;;;;;6108759;29;20470;-79
2021/05/03 16:13:34;;;;;;;1.30;1.20;;;36.20;14.90;;;;;;6112803;29;20028;-79
2021/05/03 16:16:35;;;;;;;2.58;1.13;;;36.10;15.00;;;;;;6095913;29;20059;-78
2021/05/03 16:19:36;;;;;;;1.50;1.05;;;36.00;14.90;;;;;;6091613;29;20465;-79
2021/05/03 16:22:38;;;;;;;1.00;0.90;;;36.10;15.10;;;;;;6089416;29;20448;-79
2021/05/03 16:25:39;;;;;;;2.22;1.17;;;36.00;15.10;;;;;;6101238;29;20033;-80
2021/05/03 16:28:40;;;;;;;1.60;1.25;;;35.30;15.30;;;;;;6108078;29;20028;-79
2021/05/03 16:31:41;;;;;;;4.32;1.05;;;34.00;16.10;;;;;;6091443;29;20063;-78
2021/05/03 16:34:42;;;;;;;1.70;1.02;;;32.50;17.00;;;;;;6098628;29;20424;-79
2021/05/03 16:37:45;;;;;;;1.67;1.15;;;31.20;17.90;;;;;;6085033;29;20472;-79
2021/05/03 16:40:46;;;;;;;1.65;1.10;;;29.90;18.80;;;;;;6084605;29;20457;-80
2021/05/03 16:43:47;;;;;;;1.48;1.10;;;28.50;19.70;;;;;;6072307;29;20032;-78
2021/05/03 16:46:49;;;;;;;1.95;1.00;;;27.40;20.60;;;;;;6100722;29;20029;-78
2021/05/03 16:49:50;;;;;;;1.13;0.90;;;26.50;21.30;;;;;;6089828;29;20047;-78
2021/05/03 16:52:51;;;;;;;5.97;1.00;;;25.80;22.00;;;;;;6084598;29;20440;-80
2021/05/03 16:55:52;;;;;;;2.13;1.38;;;25.30;22.70;;;;;;6085850;29;20125;-79
2021/05/03 16:58:54;;;;;;;2.08;1.10;;;24.70;23.20;;;;;;6106541;29;20036;-79
2021/05/03 17:01:55;;;;;;;1.45;1.33;;;24.30;23.80;;;;;;6101257;29;20052;-78
2021/05/03 17:04:56;;;;;;;1.40;1.00;;;23.90;24.20;;;;;;6114411;29;20411;-80